createdAt,value
2019-04-03T00:00:00.843Z,0
2019-04-03T00:00:41.281Z,0
2019-04-03T00:01:21.655Z,0
2019-04-03T00:02:02.610Z,0
2019-04-03T00:02:42.481Z,0
2019-04-03T00:03:22.875Z,0
2019-04-03T00:04:04.649Z,0
2019-04-03T00:04:43.805Z,0
2019-04-03T00:05:24.101Z,0
2019-04-03T00:06:05.472Z,0
2019-04-03T00:06:44.923Z,0
2019-04-03T00:07:25.457Z,0
2019-04-03T00:08:06.373Z,0
2019-04-03T00:08:46.086Z,0
2019-04-03T00:09:26.591Z,0
2019-04-03T00:10:07.388Z,0
2019-04-03T00:10:47.320Z,0
2019-04-03T00:11:27.702Z,0
2019-04-03T00:12:08.664Z,0
2019-04-03T00:12:48.477Z,0
2019-04-03T00:13:29.015Z,0
2019-04-03T00:14:12.100Z,0
2019-04-03T00:14:49.667Z,0
2019-04-03T00:15:30.134Z,0
2019-04-03T00:16:10.515Z,0
2019-04-03T00:16:50.930Z,0
2019-04-03T00:17:31.363Z,0
2019-04-03T00:18:11.788Z,0
2019-04-03T00:18:52.208Z,0
2019-04-03T00:19:32.638Z,0
2019-04-03T00:20:13.138Z,0
2019-04-03T00:20:53.444Z,0
2019-04-03T00:21:33.873Z,0
2019-04-03T00:22:14.296Z,0
2019-04-03T00:22:54.716Z,0
2019-04-03T00:23:35.111Z,0
2019-04-03T00:24:15.563Z,0
2019-04-03T00:24:55.942Z,0
2019-04-03T00:25:36.538Z,0
2019-04-03T00:26:16.782Z,0
2019-04-03T00:26:57.207Z,0
2019-04-03T00:27:37.614Z,0
2019-04-03T00:28:18.051Z,0
2019-04-03T00:28:58.458Z,0
2019-04-03T00:29:38.852Z,0
2019-04-03T00:30:20.481Z,0
2019-04-03T00:30:59.716Z,0
2019-04-03T00:31:40.034Z,0
2019-04-03T00:32:21.716Z,0
2019-04-03T00:33:00.817Z,0
2019-04-03T00:33:41.211Z,0
2019-04-03T00:34:23.365Z,0
2019-04-03T00:35:02.012Z,0
2019-04-03T00:35:42.407Z,0
2019-04-03T00:36:23.296Z,0
2019-04-03T00:37:03.180Z,0
2019-04-03T00:37:43.587Z,0
2019-04-03T00:38:24.680Z,0
2019-04-03T00:39:04.424Z,0
2019-04-03T00:39:44.778Z,0
2019-04-03T00:40:25.180Z,0
2019-04-03T00:41:06.499Z,0
2019-04-03T00:41:46.894Z,0
2019-04-03T00:42:27.291Z,0
2019-04-03T00:43:07.735Z,0
2019-04-03T00:43:48.080Z,0
2019-04-03T00:44:28.460Z,0
2019-04-03T00:45:08.944Z,0
2019-04-03T00:45:49.295Z,0
2019-04-03T00:46:29.768Z,0
2019-04-03T00:47:10.235Z,0
2019-04-03T00:47:50.641Z,0
2019-04-03T00:48:31.081Z,0
2019-04-03T00:49:11.459Z,0
2019-04-03T00:49:51.806Z,0
2019-04-03T00:50:32.291Z,0
2019-04-03T00:51:12.656Z,0
2019-04-03T00:51:53.123Z,0
2019-04-03T00:52:33.579Z,0
2019-04-03T00:53:13.869Z,0
2019-04-03T00:53:54.274Z,0
2019-04-03T00:54:34.679Z,0
2019-04-03T00:55:15.147Z,0
2019-04-03T00:55:56.403Z,0
2019-04-03T00:56:35.856Z,0
2019-04-03T00:57:16.230Z,0
2019-04-03T00:57:56.888Z,0
2019-04-03T00:58:37.856Z,0
2019-04-03T00:59:18.220Z,0
2019-04-03T00:59:58.612Z,0
2019-04-03T01:00:39.332Z,0
2019-04-03T01:01:19.453Z,0
2019-04-03T01:01:59.920Z,0
2019-04-03T01:02:40.339Z,0
2019-04-03T01:03:20.677Z,0
2019-04-03T01:04:01.248Z,0
2019-04-03T01:04:41.626Z,0
2019-04-03T01:05:22.012Z,0
2019-04-03T01:06:02.515Z,0
2019-04-03T01:06:42.823Z,0
2019-04-03T01:07:23.204Z,0
2019-04-03T01:08:03.665Z,0
2019-04-03T01:12:23.281Z,0
2019-04-03T01:21:45.555Z,0
2019-04-03T01:24:08.259Z,0
2019-04-03T01:24:46.300Z,0
2019-04-03T01:25:26.620Z,0
2019-04-03T01:26:09.120Z,0
2019-04-03T01:26:47.439Z,0
2019-04-03T01:27:27.901Z,0
2019-04-03T01:28:08.324Z,0
2019-04-03T01:28:48.699Z,0
2019-04-03T01:29:29.027Z,0
2019-04-03T01:30:09.422Z,0
2019-04-03T01:30:49.926Z,0
2019-04-03T01:31:30.278Z,0
2019-04-03T01:32:10.647Z,0
2019-04-03T01:32:51.077Z,0
2019-04-03T01:33:31.441Z,0
2019-04-03T01:34:11.810Z,0
2019-04-03T01:34:52.203Z,0
2019-04-03T01:35:32.784Z,0
2019-04-03T01:36:12.993Z,0
2019-04-03T01:36:53.452Z,0
2019-04-03T01:37:33.770Z,0
2019-04-03T01:38:14.196Z,0
2019-04-03T01:38:54.703Z,0
2019-04-03T01:39:35.069Z,0
2019-04-03T01:40:15.478Z,0
2019-04-03T01:40:55.889Z,0
2019-04-03T01:41:36.305Z,0
2019-04-03T01:42:16.866Z,0
2019-04-03T01:42:57.271Z,0
2019-04-03T01:43:37.819Z,0
2019-04-03T01:44:18.107Z,0
2019-04-03T01:44:58.518Z,0
2019-04-03T01:45:38.939Z,0
2019-04-03T01:46:19.373Z,0
2019-04-03T01:46:59.774Z,0
2019-04-03T01:47:40.154Z,0
2019-04-03T01:48:20.569Z,0
2019-04-03T01:49:00.934Z,0
2019-04-03T01:49:41.334Z,0
2019-04-03T01:52:57.845Z,0
2019-04-03T01:53:38.133Z,0
2019-04-03T01:54:18.545Z,0
2019-04-03T01:54:59.085Z,0
2019-04-03T01:55:39.356Z,0
2019-04-03T01:56:19.755Z,0
2019-04-03T01:57:00.271Z,0
2019-04-03T01:57:40.639Z,0
2019-04-03T01:58:20.978Z,0
2019-04-03T01:59:01.399Z,0
2019-04-03T01:59:41.811Z,0
2019-04-03T02:00:22.218Z,0
2019-04-03T02:01:02.635Z,0
2019-04-03T02:01:43.058Z,0
2019-04-03T02:02:23.442Z,0
2019-04-03T02:03:03.868Z,0
2019-04-03T02:03:44.304Z,0
2019-04-03T02:04:24.716Z,0
2019-04-03T02:05:05.100Z,0
2019-04-03T02:05:45.699Z,0
2019-04-03T02:06:25.952Z,0
2019-04-03T02:07:06.502Z,0
2019-04-03T02:07:46.785Z,0
2019-04-03T02:08:27.245Z,0
2019-04-03T02:09:07.587Z,0
2019-04-03T02:09:47.990Z,0
2019-04-03T02:10:28.527Z,0
2019-04-03T02:11:08.869Z,0
2019-04-03T02:11:49.804Z,0
2019-04-03T02:12:29.663Z,0
2019-04-03T02:13:10.083Z,0
2019-04-03T02:13:51.270Z,0
2019-04-03T02:14:31.030Z,0
2019-04-03T02:15:11.329Z,0
2019-04-03T02:15:52.497Z,0
2019-04-03T02:16:32.225Z,0
2019-04-03T02:17:12.603Z,0
2019-04-03T02:17:54.845Z,0
2019-04-03T02:18:33.427Z,0
2019-04-03T02:19:13.829Z,0
2019-04-03T02:19:55.906Z,0
2019-04-03T02:20:34.661Z,0
2019-04-03T02:21:15.032Z,0
2019-04-03T02:21:57.933Z,0
2019-04-03T02:22:35.881Z,0
2019-04-03T02:23:16.255Z,0
2019-04-03T02:23:56.672Z,0
2019-04-03T02:24:37.093Z,0
2019-04-03T02:25:17.473Z,0
2019-04-03T02:25:57.900Z,0
2019-04-03T02:26:38.280Z,0
2019-04-03T02:27:18.739Z,0
2019-04-03T02:27:59.132Z,0
2019-04-03T02:28:39.462Z,0
2019-04-03T02:29:19.854Z,0
2019-04-03T02:30:00.491Z,0
2019-04-03T02:30:44.609Z,0
2019-04-03T02:31:21.133Z,0
2019-04-03T02:32:01.798Z,0
2019-04-03T02:32:41.940Z,0
2019-04-03T02:33:22.287Z,0
2019-04-03T02:34:03.218Z,0
2019-04-03T02:34:43.137Z,0
2019-04-03T02:35:23.735Z,0
2019-04-03T02:36:03.902Z,0
2019-04-03T02:36:45.450Z,0
2019-04-03T02:37:24.695Z,0
2019-04-03T02:38:05.049Z,0
2019-04-03T02:38:45.504Z,0
2019-04-03T02:39:27.420Z,0
2019-04-03T02:40:06.465Z,0
2019-04-03T02:40:46.663Z,0
2019-04-03T02:41:27.073Z,0
2019-04-03T02:42:08.480Z,0
2019-04-03T02:42:47.955Z,0
2019-04-03T02:43:28.195Z,0
2019-04-03T02:44:08.579Z,0
2019-04-03T02:44:50.892Z,0
2019-04-03T02:45:29.432Z,0
2019-04-03T02:46:09.815Z,0
2019-04-03T02:46:50.200Z,0
2019-04-03T02:47:33.395Z,0
2019-04-03T02:48:11.004Z,0
2019-04-03T02:48:51.414Z,0
2019-04-03T02:49:31.924Z,0
2019-04-03T02:50:14.285Z,0
2019-04-03T02:50:52.835Z,0
2019-04-03T02:51:33.052Z,0
2019-04-03T02:52:13.466Z,0
2019-04-03T02:52:56.424Z,0
2019-04-03T02:53:34.309Z,0
2019-04-03T02:54:14.700Z,0
2019-04-03T02:54:55.125Z,0
2019-04-03T02:55:38.966Z,0
2019-04-03T02:56:16.079Z,0
2019-04-03T02:56:56.371Z,0
2019-04-03T02:57:36.799Z,0
2019-04-03T02:58:21.040Z,0
2019-04-03T02:58:57.644Z,0
2019-04-03T02:59:38.068Z,0
2019-04-03T03:00:18.453Z,0
2019-04-03T03:00:59.068Z,0
2019-04-03T03:01:40.389Z,0
2019-04-03T03:02:19.963Z,0
2019-04-03T03:03:00.498Z,0
2019-04-03T03:03:40.515Z,0
2019-04-03T03:04:22.019Z,0
2019-04-03T03:05:01.331Z,0
2019-04-03T03:05:41.919Z,0
2019-04-03T03:06:22.136Z,0
2019-04-03T03:07:04.420Z,0
2019-04-03T03:07:43.099Z,0
2019-04-03T03:08:23.647Z,0
2019-04-03T03:09:03.816Z,0
2019-04-03T03:09:46.574Z,0
2019-04-03T03:10:24.657Z,0
2019-04-03T03:11:05.093Z,0
2019-04-03T03:11:45.495Z,0
2019-04-03T03:12:27.614Z,0
2019-04-03T03:13:06.323Z,0
2019-04-03T03:13:46.739Z,0
2019-04-03T03:14:27.165Z,0
2019-04-03T03:15:10.592Z,0
2019-04-03T03:15:48.001Z,0
2019-04-03T03:16:28.431Z,0
2019-04-03T03:17:08.839Z,0
2019-04-03T03:17:49.213Z,0
2019-04-03T03:18:29.970Z,0
2019-04-03T03:19:10.008Z,0
2019-04-03T03:19:50.398Z,0
2019-04-03T03:20:30.835Z,0
2019-04-03T03:21:12.679Z,0
2019-04-03T03:21:51.580Z,0
2019-04-03T03:22:32.153Z,0
2019-04-03T03:23:12.647Z,0
2019-04-03T03:23:55.097Z,0
2019-04-03T03:24:33.264Z,0
2019-04-03T03:25:13.765Z,0
2019-04-03T03:25:54.315Z,0
2019-04-03T03:26:37.149Z,0
2019-04-03T03:27:14.920Z,0
2019-04-03T03:27:55.355Z,0
2019-04-03T03:28:36.110Z,0
2019-04-03T03:29:19.655Z,0
2019-04-03T03:29:59.439Z,0
2019-04-03T03:30:46.288Z,0
2019-04-03T03:31:35.322Z,0
2019-04-03T03:32:14.414Z,0
2019-04-03T03:32:46.042Z,0
2019-04-03T03:33:35.398Z,0
2019-04-03T03:34:08.885Z,0
2019-04-03T03:34:59.456Z,0
2019-04-03T03:35:39.101Z,0
2019-04-03T03:36:12.979Z,0
2019-04-03T03:36:58.314Z,0
2019-04-03T03:37:33.966Z,0
2019-04-03T03:38:13.599Z,0
2019-04-03T03:38:54.093Z,0
2019-04-03T03:39:34.991Z,0
2019-04-03T03:40:16.923Z,0
2019-04-03T03:40:57.250Z,0
2019-04-03T03:41:37.655Z,0
2019-04-03T03:42:18.057Z,0
2019-04-03T03:42:58.485Z,0
2019-04-03T03:43:39.122Z,0
2019-04-03T03:44:19.469Z,0
2019-04-03T03:45:00.052Z,0
2019-04-03T03:45:40.469Z,0
2019-04-03T03:46:20.805Z,0
2019-04-03T03:47:02.800Z,0
2019-04-03T03:47:41.617Z,0
2019-04-03T03:48:22.036Z,0
2019-04-03T03:49:02.761Z,0
2019-04-03T03:49:43.144Z,0
2019-04-03T03:50:24.813Z,0
2019-04-03T03:51:03.690Z,0
2019-04-03T03:51:44.116Z,0
2019-04-03T03:52:24.547Z,0
2019-04-03T03:53:05.148Z,0
2019-04-03T03:53:46.017Z,0
2019-04-03T03:54:26.149Z,0
2019-04-03T03:55:06.182Z,0
2019-04-03T03:55:46.685Z,0
2019-04-03T03:58:10.663Z,0
2019-04-03T03:58:47.066Z,0
2019-04-03T03:59:27.472Z,0
2019-04-03T04:00:07.908Z,0
2019-04-03T04:00:51.642Z,0
2019-04-03T04:01:31.416Z,0
2019-04-03T04:02:09.149Z,0
2019-04-03T04:02:49.785Z,0
2019-04-03T04:03:30.303Z,0
2019-04-03T04:04:14.061Z,0
2019-04-03T04:04:51.734Z,0
2019-04-03T04:05:32.135Z,0
2019-04-03T04:06:12.573Z,0
2019-04-03T04:06:52.952Z,0
2019-04-03T04:07:35.813Z,0
2019-04-03T04:08:14.017Z,0
2019-04-03T04:08:54.170Z,0
2019-04-03T04:09:34.697Z,0
2019-04-03T04:10:15.344Z,0
2019-04-03T04:10:58.490Z,0
2019-04-03T04:11:35.850Z,0
2019-04-03T04:12:16.424Z,0
2019-04-03T04:12:56.708Z,0
2019-04-03T04:13:37.062Z,0
2019-04-03T04:14:20.765Z,0
2019-04-03T04:14:57.987Z,0
2019-04-03T04:15:38.364Z,0
2019-04-03T04:16:18.758Z,0
2019-04-03T04:16:59.105Z,0
2019-04-03T04:17:39.544Z,0
2019-04-03T04:18:22.261Z,0
2019-04-03T04:19:00.658Z,0
2019-04-03T04:19:41.003Z,0
2019-04-03T04:20:21.234Z,0
2019-04-03T04:21:01.769Z,0
2019-04-03T04:21:43.866Z,0
2019-04-03T04:22:26.240Z,0
2019-04-03T04:23:02.991Z,0
2019-04-03T04:23:43.308Z,0
2019-04-03T04:24:23.725Z,0
2019-04-03T04:25:04.146Z,0
2019-04-03T04:25:44.721Z,0
2019-04-03T04:26:24.981Z,0
2019-04-03T04:27:06.370Z,0
2019-04-03T05:06:30.666Z,4
2019-04-03T05:07:10.940Z,4
2019-04-03T05:07:51.414Z,4
2019-04-03T05:08:32.704Z,4
2019-04-03T05:09:12.276Z,4
2019-04-03T05:09:52.551Z,8
2019-04-03T05:10:32.970Z,4
2019-04-03T05:11:13.437Z,4
2019-04-03T05:11:53.805Z,4
2019-04-03T05:12:34.226Z,8
2019-04-03T05:13:15.936Z,8
2019-04-03T05:13:55.049Z,8
2019-04-03T05:14:35.463Z,8
2019-04-03T05:15:15.923Z,8
2019-04-03T05:17:43.840Z,12
2019-04-03T05:18:24.207Z,16
2019-04-03T05:19:09.931Z,16
2019-04-03T05:19:45.005Z,16
2019-04-03T05:20:25.351Z,16
2019-04-03T05:21:05.787Z,16
2019-04-03T05:21:46.452Z,12
2019-04-03T05:22:26.643Z,12
2019-04-03T05:23:07.122Z,12
2019-04-03T05:23:47.472Z,16
2019-04-03T05:24:28.820Z,16
2019-04-03T05:25:08.371Z,16
2019-04-03T05:25:49.098Z,20
2019-04-03T05:26:31.723Z,16
2019-04-03T05:27:10.470Z,20
2019-04-03T05:27:51.700Z,20
2019-04-03T05:28:33.945Z,20
2019-04-03T05:29:12.758Z,24
2019-04-03T05:29:53.040Z,24
2019-04-03T05:30:37.801Z,24
2019-04-03T05:31:17.002Z,28
2019-04-03T05:31:57.411Z,28
2019-04-03T05:32:39.115Z,24
2019-04-03T05:33:18.305Z,24
2019-04-03T05:33:58.874Z,28
2019-04-03T05:36:27.569Z,36
2019-04-03T05:37:10.632Z,36
2019-04-03T05:37:48.940Z,36
2019-04-03T05:38:28.846Z,40
2019-04-03T05:39:09.208Z,44
2019-04-03T05:39:49.594Z,48
2019-04-03T05:40:30.102Z,48
2019-04-03T05:41:10.623Z,48
2019-04-03T05:41:50.918Z,56
2019-04-03T05:42:31.314Z,60
2019-04-03T05:43:11.741Z,64
2019-04-03T05:43:53.147Z,68
2019-04-03T05:44:33.836Z,68
2019-04-03T05:45:15.016Z,68
2019-04-03T05:45:55.390Z,68
2019-04-03T05:46:37.381Z,68
2019-04-03T05:47:16.297Z,76
2019-04-03T05:47:56.780Z,80
2019-04-03T05:48:37.351Z,84
2019-04-03T05:49:19.002Z,88
2019-04-03T05:49:58.313Z,88
2019-04-03T05:50:38.836Z,92
2019-04-03T05:51:19.426Z,96
2019-04-03T05:51:59.905Z,100
2019-04-03T05:52:40.506Z,100
2019-04-03T05:53:20.737Z,100
2019-04-03T05:54:01.157Z,100
2019-04-03T05:54:43.977Z,96
2019-04-03T05:55:22.019Z,92
2019-04-03T05:56:02.581Z,92
2019-04-03T05:56:43.415Z,92
2019-04-03T05:57:23.371Z,92
2019-04-03T05:58:03.749Z,92
2019-04-03T05:58:54.300Z,92
2019-04-03T05:59:24.694Z,96
2019-04-03T06:00:06.771Z,100
2019-04-03T06:00:45.419Z,104
2019-04-03T06:01:26.821Z,108
2019-04-03T06:02:14.533Z,112
2019-04-03T06:02:47.456Z,116
2019-04-03T06:03:39.120Z,116
2019-04-03T06:04:10.611Z,116
2019-04-03T06:04:50.493Z,116
2019-04-03T06:05:30.846Z,116
2019-04-03T06:06:13.940Z,116
2019-04-03T06:06:51.981Z,112
2019-04-03T06:07:32.535Z,112
2019-04-03T06:08:12.989Z,112
2019-04-03T06:08:56.293Z,108
2019-04-03T06:09:34.792Z,108
2019-04-03T06:10:17.668Z,108
2019-04-03T06:10:59.451Z,112
2019-04-03T06:11:41.072Z,116
2019-04-03T06:12:20.536Z,116
2019-04-03T06:13:01.552Z,124
2019-04-03T06:13:42.120Z,132
2019-04-03T06:14:23.280Z,136
2019-04-03T06:15:04.121Z,148
2019-04-03T06:15:43.950Z,152
2019-04-03T06:16:25.013Z,160
2019-04-03T06:17:05.093Z,164
2019-04-03T06:17:45.513Z,172
2019-04-03T06:18:26.894Z,176
2019-04-03T06:19:07.328Z,176
2019-04-03T06:19:47.201Z,180
2019-04-03T06:20:28.588Z,180
2019-04-03T06:21:08.417Z,180
2019-04-03T06:21:48.909Z,180
2019-04-03T06:22:29.322Z,176
2019-04-03T06:23:10.596Z,176
2019-04-03T06:23:52.617Z,172
2019-04-03T06:24:32.724Z,172
2019-04-03T06:25:14.474Z,172
2019-04-03T06:25:54.837Z,168
2019-04-03T06:26:37.754Z,164
2019-04-03T06:27:19.000Z,164
2019-04-03T06:27:56.627Z,164
2019-04-03T06:28:37.210Z,168
2019-04-03T06:29:19.305Z,172
2019-04-03T06:29:58.288Z,180
2019-04-03T06:30:38.773Z,184
2019-04-03T06:31:19.278Z,188
2019-04-03T06:31:59.923Z,192
2019-04-03T06:32:40.442Z,200
2019-04-03T06:33:20.848Z,208
2019-04-03T06:34:01.567Z,216
2019-04-03T06:34:43.697Z,224
2019-04-03T06:35:23.023Z,232
2019-04-03T06:36:03.621Z,240
2019-04-03T06:36:44.141Z,240
2019-04-03T06:37:24.528Z,244
2019-04-03T06:38:05.030Z,248
2019-04-03T06:38:45.599Z,256
2019-04-03T06:39:30.074Z,264
2019-04-03T06:40:07.914Z,272
2019-04-03T06:40:48.613Z,280
2019-04-03T06:41:29.073Z,288
2019-04-03T06:42:09.570Z,296
2019-04-03T06:42:50.081Z,300
2019-04-03T06:43:30.744Z,304
2019-04-03T06:44:10.949Z,308
2019-04-03T06:44:53.563Z,308
2019-04-03T06:45:31.782Z,312
2019-04-03T06:46:13.007Z,316
2019-04-03T06:46:54.377Z,324
2019-04-03T06:47:33.815Z,332
2019-04-03T06:48:15.273Z,344
2019-04-03T06:48:55.952Z,360
2019-04-03T06:49:36.406Z,368
2019-04-03T06:50:17.843Z,372
2019-04-03T06:50:57.349Z,372
2019-04-03T06:51:37.867Z,372
2019-04-03T06:52:19.423Z,376
2019-04-03T06:52:58.510Z,384
2019-04-03T06:53:39.122Z,384
2019-04-03T06:54:19.360Z,388
2019-04-03T06:55:01.148Z,388
2019-04-03T06:55:40.189Z,388
2019-04-03T06:56:20.596Z,384
2019-04-03T06:57:01.094Z,388
2019-04-03T06:57:41.926Z,384
2019-04-03T06:58:22.380Z,380
2019-04-03T06:59:04.610Z,376
2019-04-03T06:59:46.403Z,368
2019-04-03T07:00:25.697Z,368
2019-04-03T07:01:06.898Z,364
2019-04-03T07:01:48.498Z,364
2019-04-03T07:02:31.189Z,360
2019-04-03T07:03:08.680Z,356
2019-04-03T07:03:49.821Z,356
2019-04-03T07:04:30.259Z,348
2019-04-03T07:05:11.001Z,348
2019-04-03T07:05:51.009Z,348
2019-04-03T07:06:31.274Z,348
2019-04-03T07:07:11.858Z,352
2019-04-03T07:07:52.451Z,364
2019-04-03T07:08:35.793Z,380
2019-04-03T07:09:22.327Z,388
2019-04-03T07:09:55.778Z,396
2019-04-03T07:10:36.878Z,412
2019-04-03T07:11:23.020Z,416
2019-04-03T07:11:57.679Z,416
2019-04-03T07:12:38.379Z,420
2019-04-03T07:13:20.498Z,420
2019-04-03T07:13:59.204Z,428
2019-04-03T07:14:39.728Z,440
2019-04-03T07:15:21.004Z,444
2019-04-03T07:16:01.289Z,448
2019-04-03T07:16:43.258Z,448
2019-04-03T07:17:23.512Z,452
2019-04-03T07:18:05.749Z,452
2019-04-03T07:18:44.762Z,452
2019-04-03T07:19:27.295Z,464
2019-04-03T07:20:14.090Z,468
2019-04-03T07:20:50.949Z,484
2019-04-03T07:21:28.674Z,496
2019-04-03T07:22:10.149Z,504
2019-04-03T07:22:51.108Z,524
2019-04-03T07:23:31.991Z,548
2019-04-03T07:24:13.363Z,568
2019-04-03T07:24:53.803Z,584
2019-04-03T07:25:34.624Z,608
2019-04-03T07:26:17.377Z,616
2019-04-03T07:26:57.557Z,632
2019-04-03T07:27:41.171Z,644
2019-04-03T07:28:18.712Z,644
2019-04-03T07:28:59.828Z,636
2019-04-03T07:29:40.278Z,624
2019-04-03T07:30:21.696Z,608
2019-04-03T07:31:01.229Z,588
2019-04-03T07:31:41.680Z,564
2019-04-03T07:32:23.499Z,544
2019-04-03T07:33:05.030Z,540
2019-04-03T07:33:42.974Z,524
2019-04-03T07:34:23.395Z,532
2019-04-03T07:35:07.553Z,532
2019-04-03T07:35:44.813Z,508
2019-04-03T07:36:25.695Z,500
2019-04-03T07:37:05.825Z,500
2019-04-03T07:37:46.323Z,504
2019-04-03T07:38:27.543Z,504
2019-04-03T07:39:10.550Z,520
2019-04-03T07:39:49.934Z,552
2019-04-03T07:40:28.685Z,572
2019-04-03T07:41:09.411Z,608
2019-04-03T07:41:50.053Z,632
2019-04-03T07:42:30.404Z,660
2019-04-03T07:43:11.512Z,652
2019-04-03T07:43:51.785Z,628
2019-04-03T07:44:32.205Z,640
2019-04-03T07:45:12.622Z,652
2019-04-03T07:45:53.068Z,660
2019-04-03T07:46:33.931Z,652
2019-04-03T07:47:13.967Z,644
2019-04-03T07:47:54.579Z,648
2019-04-03T07:48:35.762Z,656
2019-04-03T07:49:15.640Z,668
2019-04-03T07:49:56.090Z,672
2019-04-03T07:50:37.153Z,684
2019-04-03T07:51:19.263Z,684
2019-04-03T07:52:00.486Z,668
2019-04-03T07:52:40.822Z,648
2019-04-03T07:53:21.306Z,608
2019-04-03T07:54:04.158Z,560
2019-04-03T07:54:42.511Z,524
2019-04-03T07:55:24.180Z,492
2019-04-03T07:56:04.240Z,444
2019-04-03T07:56:44.669Z,412
2019-04-03T07:57:25.171Z,376
2019-04-03T07:58:05.592Z,372
2019-04-03T07:58:46.069Z,392
2019-04-03T07:59:26.529Z,396
2019-04-03T08:00:07.234Z,392
2019-04-03T08:00:48.295Z,412
2019-04-03T08:01:28.693Z,436
2019-04-03T08:02:11.842Z,456
2019-04-03T08:02:50.129Z,476
2019-04-03T08:03:30.370Z,492
2019-04-03T08:04:10.918Z,512
2019-04-03T08:04:51.488Z,528
2019-04-03T08:05:32.197Z,552
2019-04-03T08:06:13.218Z,564
2019-04-03T08:06:53.657Z,580
2019-04-03T08:07:34.997Z,572
2019-04-03T08:11:23.756Z,624
2019-04-03T08:12:04.751Z,632
2019-04-03T08:12:46.190Z,652
2019-04-03T08:13:26.655Z,652
2019-04-03T08:14:09.476Z,652
2019-04-03T08:14:50.175Z,672
2019-04-03T08:15:30.260Z,716
2019-04-03T08:16:10.828Z,760
2019-04-03T08:16:52.185Z,820
2019-04-03T08:17:32.423Z,868
2019-04-03T08:18:13.121Z,928
2019-04-03T08:18:53.787Z,992
2019-04-03T08:19:35.200Z,1008
2019-04-03T08:20:15.119Z,1044
2019-04-03T08:20:57.282Z,1076
2019-04-03T08:21:37.736Z,1068
2019-04-03T08:22:21.755Z,1036
2019-04-03T08:23:05.595Z,1024
2019-04-03T08:23:44.039Z,992
2019-04-03T08:24:25.339Z,972
2019-04-03T08:25:05.993Z,948
2019-04-03T08:25:48.801Z,904
2019-04-03T08:26:28.869Z,860
2019-04-03T08:27:09.175Z,832
2019-04-03T08:27:49.545Z,832
2019-04-03T08:28:34.557Z,864
2019-04-03T08:29:15.619Z,916
2019-04-03T08:29:56.998Z,844
2019-04-03T08:30:39.593Z,776
2019-04-03T08:31:18.126Z,724
2019-04-03T08:31:59.865Z,692
2019-04-03T08:38:08.436Z,712
2019-04-03T08:38:49.309Z,740
2019-04-03T08:39:33.328Z,768
2019-04-03T08:40:14.471Z,772
2019-04-03T08:40:55.219Z,740
2019-04-03T08:41:37.880Z,716
2019-04-03T08:42:18.327Z,664
2019-04-03T08:43:00.321Z,636
2019-04-03T08:43:40.448Z,608
2019-04-03T08:44:21.549Z,564
2019-04-03T08:45:02.180Z,536
2019-04-03T08:45:42.841Z,536
2019-04-03T08:46:23.894Z,532
2019-04-03T08:47:04.664Z,540
2019-04-03T08:47:46.548Z,580
2019-04-03T08:48:28.185Z,636
2019-04-03T08:49:08.409Z,708
2019-04-03T08:49:49.279Z,792
2019-04-03T08:50:30.314Z,904
2019-04-03T08:51:10.797Z,988
2019-04-03T08:51:51.795Z,948
2019-04-03T08:52:32.809Z,900
2019-04-03T08:53:13.690Z,940
2019-04-03T08:53:54.940Z,1044
2019-04-03T08:54:35.150Z,1212
2019-04-03T08:55:17.132Z,1244
2019-04-03T08:55:58.096Z,1280
2019-04-03T08:56:37.860Z,1380
2019-04-03T08:57:20.429Z,1300
2019-04-03T08:58:01.074Z,1144
2019-04-03T08:58:41.805Z,1100
2019-04-03T09:00:56.140Z,988
2019-04-03T09:01:38.454Z,940
2019-04-03T09:02:19.334Z,952
2019-04-03T09:03:03.339Z,1016
2019-04-03T09:03:40.448Z,1076
2019-04-03T09:04:22.088Z,1040
2019-04-03T09:05:02.945Z,1012
2019-04-03T09:05:43.346Z,1024
2019-04-03T09:06:23.856Z,1020
2019-04-03T09:07:05.500Z,1036
2019-04-03T09:07:49.233Z,1092
2019-04-03T09:08:29.956Z,1172
2019-04-03T09:11:07.151Z,1384
2019-04-03T09:11:47.493Z,1440
2019-04-03T09:12:29.731Z,1488
2019-04-03T09:13:17.268Z,1504
2019-04-03T09:13:50.032Z,1476
2019-04-03T09:14:31.506Z,1456
2019-04-03T09:15:11.794Z,1464
2019-04-03T09:15:53.418Z,1440
2019-04-03T09:16:33.657Z,1416
2019-04-03T09:17:14.388Z,1404
2019-04-03T09:17:55.072Z,1372
2019-04-03T09:18:37.381Z,1348
2019-04-03T09:19:17.168Z,1308
2019-04-03T09:19:57.344Z,1268
2019-04-03T09:20:37.889Z,1244
2019-04-03T09:21:18.340Z,1184
2019-04-03T09:21:59.881Z,1152
2019-04-03T09:22:40.915Z,1164
2019-04-03T09:23:20.364Z,1192
2019-04-03T09:24:00.819Z,1200
2019-04-03T09:24:41.849Z,1212
2019-04-03T09:25:22.884Z,1212
2019-04-03T09:26:03.815Z,1212
2019-04-03T09:26:43.683Z,1216
2019-04-03T09:27:24.741Z,1220
2019-04-03T09:28:05.270Z,1220
2019-04-03T09:28:48.256Z,1228
2019-04-03T09:29:29.494Z,1224
2019-04-03T09:30:10.038Z,1252
2019-04-03T09:30:53.943Z,1268
2019-04-03T09:31:34.229Z,1300
2019-04-03T09:32:14.053Z,1336
2019-04-03T09:32:58.955Z,1396
2019-04-03T09:33:36.391Z,1412
2019-04-03T09:34:20.145Z,1404
2019-04-03T09:35:01.264Z,1432
2019-04-03T09:35:43.249Z,1468
2019-04-03T09:36:22.529Z,1516
2019-04-03T09:37:06.304Z,1576
2019-04-03T09:37:46.009Z,1628
2019-04-03T09:38:25.317Z,1628
2019-04-03T09:39:05.949Z,1640
2019-04-03T09:39:47.443Z,1688
2019-04-03T09:40:27.629Z,1788
2019-04-03T09:41:11.404Z,1900
2019-04-03T09:41:52.999Z,2016
2019-04-03T09:42:34.910Z,2096
2019-04-03T09:43:14.841Z,2132
2019-04-03T09:43:56.765Z,2140
2019-04-03T09:44:36.396Z,2148
2019-04-03T09:45:19.737Z,2088
2019-04-03T09:46:00.874Z,2028
2019-04-03T09:46:44.520Z,1964
2019-04-03T09:47:29.804Z,1928
2019-04-03T09:48:11.919Z,1940
2019-04-03T09:48:51.180Z,1944
2019-04-03T09:49:31.131Z,1912
2019-04-03T09:50:13.907Z,1880
2019-04-03T09:50:53.132Z,1932
2019-04-03T09:51:34.408Z,2008
2019-04-03T09:52:15.119Z,2064
2019-04-03T09:52:55.525Z,2144
2019-04-03T09:53:35.904Z,2200
2019-04-03T09:54:16.677Z,2192
2019-04-03T09:54:58.203Z,2152
2019-04-03T09:55:38.249Z,2116
2019-04-03T09:56:18.677Z,2108
2019-04-03T09:57:03.957Z,2092
2019-04-03T09:57:40.589Z,2040
2019-04-03T09:58:21.989Z,1864
2019-04-03T10:00:41.878Z,1748
2019-04-03T10:01:21.110Z,1776
2019-04-03T10:02:01.452Z,1840
2019-04-03T10:02:43.173Z,1880
2019-04-03T10:03:24.043Z,1940
2019-04-03T10:04:04.653Z,1884
2019-04-03T10:04:44.892Z,1720
2019-04-03T10:05:26.707Z,1684
2019-04-03T10:06:11.081Z,1744
2019-04-03T10:06:52.922Z,1756
2019-04-03T10:07:35.349Z,1684
2019-04-03T10:08:13.865Z,1648
2019-04-03T10:08:55.764Z,1668
2019-04-03T10:09:43.524Z,1856
2019-04-03T10:10:25.544Z,1968
2019-04-03T10:11:06.847Z,1932
2019-04-03T10:11:51.031Z,1792
2019-04-03T10:12:32.118Z,1640
2019-04-03T10:13:11.281Z,1484
2019-04-03T10:13:51.886Z,1372
2019-04-03T10:14:32.850Z,1296
2019-04-03T10:15:12.997Z,1248
2019-04-03T10:15:53.770Z,1244
2019-04-03T10:16:36.764Z,1244
2019-04-03T10:17:18.031Z,1260
2019-04-03T10:18:03.120Z,1260
2019-04-03T10:18:44.179Z,1284
2019-04-03T10:19:24.807Z,1264
2019-04-03T10:20:06.697Z,1208
2019-04-03T10:20:49.229Z,1128
2019-04-03T10:21:28.118Z,1028
2019-04-03T10:22:09.035Z,960
2019-04-03T10:22:51.100Z,972
2019-04-03T10:23:31.717Z,1008
2019-04-03T10:24:12.257Z,1100
2019-04-03T10:24:55.727Z,1176
2019-04-03T10:25:37.016Z,1204
2019-04-03T10:26:16.958Z,1212
2019-04-03T10:27:01.746Z,1208
2019-04-03T10:27:45.917Z,1144
2019-04-03T10:28:33.246Z,1100
2019-04-03T11:07:47.582Z,1496
2019-04-03T11:11:58.212Z,1564
2019-04-03T11:12:39.016Z,1352
2019-04-03T11:13:19.179Z,1180
2019-04-03T11:14:02.217Z,988
2019-04-03T11:14:40.626Z,872
2019-04-03T11:15:21.282Z,952
2019-04-03T11:16:02.723Z,1028
2019-04-03T11:16:45.395Z,1004
2019-04-03T11:17:25.611Z,912
2019-04-03T11:18:04.447Z,872
2019-04-03T11:18:57.403Z,888
2019-04-03T11:19:26.448Z,948
2019-04-03T11:20:09.109Z,1004
2019-04-03T11:20:47.872Z,1076
2019-04-03T11:21:29.740Z,1156
2019-04-03T11:22:11.772Z,1208
2019-04-03T11:23:03.935Z,1232
2019-04-03T11:23:38.913Z,1284
2019-04-03T11:24:13.964Z,1440
2019-04-03T11:24:54.480Z,1576
2019-04-03T11:25:35.010Z,1624
2019-04-03T11:26:18.301Z,1652
2019-04-03T11:26:57.006Z,1656
2019-04-03T11:27:42.960Z,1704
2019-04-03T11:28:18.680Z,1816
2019-04-03T11:28:59.627Z,1924
2019-04-03T11:29:41.826Z,1912
2019-04-03T11:30:23.962Z,1856
2019-04-03T11:31:02.154Z,1880
2019-04-03T11:31:43.283Z,1892
2019-04-03T11:32:23.702Z,1852